Esopus, NY (12429)

9:41 AM EDT on July 28, 2016 (GMT -0400)
Rifton/St Remy | | Change Station

Elev 223 ft 41.87 °N, 74.03 °W | Updated 15 seconds ago

Clear
Clear
74.5 °F
Feels Like 74 °F
N
0.2
Wind Variable Wind from SSW
Gusts 2.5 mph

Today
High -- | Low -- °F
--% Chance of Precip.
Yesterday
High -- | Low -- °F
Precip. -- in
Pressure 29.92 in
Visibility 10.0 miles
Clouds Clear
Heat Index 74 °F
Dew Point 69 °F
Humidity 83%
Rainfall 0.00 in
Snow Depth Not available.
5:46 AM 8:17 PM
Waning Crescent, 32% visible
METAR KPOU 281253Z 00000KT 10SM CLR 24/18 A2993 RMK AO2 SLP130 T02440183
Pressure 29.92 in
Visibility 10.0 miles
Clouds Clear
Heat Index 74 °F
Dew Point 69 °F
Humidity 83%
Rainfall 0.00 in
Snow Depth Not available.
5:46 AM 8:17 PM
Waning Crescent, 32% visible
METAR KPOU 281253Z 00000KT 10SM CLR 24/18 A2993 RMK AO2 SLP130 T02440183

10-Day Weather Forecast

Almanac

Astronomy

Jul. 28, 2016 Rise Set
Actual Time
Civil Twilight
Nautical Twilight
Astronomical Twilight
Moon
Length of Visible Light
Length of Day
Tomorrow will be .
, % of the Moon is Illuminated

Today's Extremes

State Highs State Lows

Community

WunderPhotos

Upload Photos

1,928,112 photos uploaded!

WunderBlog® & News

Nearby

Air Quality

  Air Quality AQ Index Pollutant
Not available.

Snow Depth

Station Depth Elevation

Earthquake Activity

City Distance Mag. Time & Date
Minimum magnitude displayed is 2.5.

Coastal Water Temperatures

Place Temperature

Stations

Nearby Weather Stations

Station Location Temp. Windchill Dew Point Humidity Wind Precip. Elev Updated Type
                   

Watches & Warnings

There are currently no watches in effect.